メインページ
METAR-TAF:

METAR-TAF

空港 :

North Battleford, サスカチュワン州, カナダ

緯度: 52-46N, 経度: 108-15W, 海抜: 548m

現時点の気象観測

当レポートは1時間7分前の10:00(UTC)に作成
の風 5kt
気温 -6°C
湿度 68%
気圧 1005 hPa
視程: 14.5km
高度24000ftの千切れ雲あり

METAR: CYQW 221000Z AUTO 09005KT 9SM BKN240 M06/M11 A2969 RMK SLP087

時間: 05:07 (11:07 UTC)

予報

当レポートは5時間29分前の05:38(UTC)に作成
予報は22日の 06時(UTC)から 22日の 18時(UTC)まで有効
変向風 3kt
視程: 10km
高度22000ftの雲は散在している
22日の 1000時(UTC)から
変向風 3kt
視程: 10km
高度500ftの雲はほとんどない
高度12000ftの雲は散在している
確率 30%
22日の 12時(UTC)から 22日の 16時(UTC)まで
視程: 1.6km
高度400ftの千切れ雲あり
22日の 1600時(UTC)から
西/北西の風 5kt
視程: 10km
高度12000ftの千切れ雲あり

TAF: CYQW 220538Z 2206/2218 VRB03KT P6SM SCT220 FM221000 VRB03KT P6SM FEW005 SCT120 PROB30 2212/2216 1SM BR BKN004 FM221600 30005KT P6SM BKN120 RMK FCST BASED ON AUTO OBS. NXT FCST BY 221200Z

4,000以上の空港の気象観測と天気予報(METAR報とTAF報)

利用可能な観測所は地図上に黄色い丸と赤い丸で示す。

丸の上にカーソルを重ねると観測所名を参照できる。

次にクリックすると気象観測と天気予報を参照できる。

マップの切り替え:黒色「×」印の緑ボタンをクリックして拡大、「-」印の緑ボタンをクリックして縮小、緑色の三角印をクリックして隣りの地図に切り替え


METAR-TAF: